sensor_id;sensor_type;location;lat;lon;timestamp;P1;durP1;ratioP1;P2;durP2;ratioP2
82265;SDS011;71866;53.340;-6.308;2024-01-07T00:00:05;16.50;;;8.48;;
82265;SDS011;71866;53.340;-6.308;2024-01-07T00:02:32;19.75;;;7.97;;
82265;SDS011;71866;53.340;-6.308;2024-01-07T00:05:00;17.95;;;8.13;;
82265;SDS011;71866;53.340;-6.308;2024-01-07T00:07:26;15.63;;;8.10;;
82265;SDS011;71866;53.340;-6.308;2024-01-07T00:09:54;16.80;;;8.30;;
82265;SDS011;71866;53.340;-6.308;2024-01-07T00:12:21;17.60;;;9.10;;
82265;SDS011;71866;53.340;-6.308;2024-01-07T00:14:49;17.30;;;10.05;;
82265;SDS011;71866;53.340;-6.308;2024-01-07T00:17:16;21.40;;;9.15;;
82265;SDS011;71866;53.340;-6.308;2024-01-07T00:19:43;20.40;;;9.98;;
82265;SDS011;71866;53.340;-6.308;2024-01-07T00:22:10;17.58;;;8.82;;
82265;SDS011;71866;53.340;-6.308;2024-01-07T00:24:36;19.13;;;9.07;;
82265;SDS011;71866;53.340;-6.308;2024-01-07T00:27:05;18.20;;;7.82;;
82265;SDS011;71866;53.340;-6.308;2024-01-07T00:29:32;17.13;;;8.15;;
82265;SDS011;71866;53.340;-6.308;2024-01-07T00:31:59;17.13;;;7.90;;
82265;SDS011;71866;53.340;-6.308;2024-01-07T00:34:26;21.65;;;11.40;;
82265;SDS011;71866;53.340;-6.308;2024-01-07T00:36:54;18.92;;;9.70;;
82265;SDS011;71866;53.340;-6.308;2024-01-07T00:39:22;17.90;;;9.48;;
82265;SDS011;71866;53.340;-6.308;2024-01-07T00:41:48;17.13;;;8.40;;
82265;SDS011;71866;53.340;-6.308;2024-01-07T00:44:16;19.00;;;9.02;;
82265;SDS011;71866;53.340;-6.308;2024-01-07T00:46:43;18.73;;;9.40;;
82265;SDS011;71866;53.340;-6.308;2024-01-07T00:49:14;22.20;;;8.98;;
82265;SDS011;71866;53.340;-6.308;2024-01-07T00:51:41;17.38;;;8.73;;
82265;SDS011;71866;53.340;-6.308;2024-01-07T00:54:09;16.00;;;7.75;;
82265;SDS011;71866;53.340;-6.308;2024-01-07T00:56:36;17.17;;;8.15;;
82265;SDS011;71866;53.340;-6.308;2024-01-07T00:59:02;16.77;;;8.93;;
82265;SDS011;71866;53.340;-6.308;2024-01-07T01:01:30;19.85;;;8.45;;
82265;SDS011;71866;53.340;-6.308;2024-01-07T01:03:58;19.20;;;8.50;;
82265;SDS011;71866;53.340;-6.308;2024-01-07T01:06:27;20.70;;;9.40;;
82265;SDS011;71866;53.340;-6.308;2024-01-07T01:08:55;20.00;;;8.35;;
82265;SDS011;71866;53.340;-6.308;2024-01-07T01:11:21;17.58;;;8.43;;
82265;SDS011;71866;53.340;-6.308;2024-01-07T01:13:49;19.77;;;8.60;;
82265;SDS011;71866;53.340;-6.308;2024-01-07T01:16:17;15.90;;;7.13;;
82265;SDS011;71866;53.340;-6.308;2024-01-07T01:18:46;18.75;;;8.18;;
82265;SDS011;71866;53.340;-6.308;2024-01-07T01:21:14;16.65;;;7.50;;
82265;SDS011;71866;53.340;-6.308;2024-01-07T01:23:41;17.08;;;8.48;;
82265;SDS011;71866;53.340;-6.308;2024-01-07T01:26:10;14.30;;;7.32;;
82265;SDS011;71866;53.340;-6.308;2024-01-07T01:28:36;16.52;;;6.85;;
82265;SDS011;71866;53.340;-6.308;2024-01-07T01:31:03;15.68;;;7.32;;
82265;SDS011;71866;53.340;-6.308;2024-01-07T01:33:31;14.98;;;7.15;;
82265;SDS011;71866;53.340;-6.308;2024-01-07T01:35:58;14.25;;;6.72;;
82265;SDS011;71866;53.340;-6.308;2024-01-07T01:38:24;13.70;;;6.28;;
82265;SDS011;71866;53.340;-6.308;2024-01-07T01:40:52;11.95;;;6.70;;
82265;SDS011;71866;53.340;-6.308;2024-01-07T01:43:26;13.15;;;6.22;;
82265;SDS011;71866;53.340;-6.308;2024-01-07T01:48:22;13.80;;;6.65;;
82265;SDS011;71866;53.340;-6.308;2024-01-07T01:50:52;18.48;;;8.13;;
82265;SDS011;71866;53.340;-6.308;2024-01-07T01:53:19;16.48;;;6.68;;
82265;SDS011;71866;53.340;-6.308;2024-01-07T01:55:47;14.60;;;7.15;;
82265;SDS011;71866;53.340;-6.308;2024-01-07T01:58:15;15.93;;;6.80;;
82265;SDS011;71866;53.340;-6.308;2024-01-07T02:00:45;11.68;;;6.88;;
82265;SDS011;71866;53.340;-6.308;2024-01-07T02:03:13;12.32;;;6.10;;
82265;SDS011;71866;53.340;-6.308;2024-01-07T02:05:41;13.13;;;6.25;;
82265;SDS011;71866;53.340;-6.308;2024-01-07T02:08:07;12.68;;;5.78;;
82265;SDS011;71866;53.340;-6.308;2024-01-07T02:10:35;14.45;;;6.20;;
82265;SDS011;71866;53.340;-6.308;2024-01-07T02:13:06;12.10;;;5.72;;
82265;SDS011;71866;53.340;-6.308;2024-01-07T02:15:34;12.60;;;6.13;;
82265;SDS011;71866;53.340;-6.308;2024-01-07T02:18:01;15.75;;;6.70;;
82265;SDS011;71866;53.340;-6.308;2024-01-07T02:20:28;13.07;;;5.95;;
82265;SDS011;71866;53.340;-6.308;2024-01-07T02:22:55;13.63;;;6.32;;
82265;SDS011;71866;53.340;-6.308;2024-01-07T02:25:22;13.00;;;6.20;;
82265;SDS011;71866;53.340;-6.308;2024-01-07T02:27:49;13.02;;;6.07;;
82265;SDS011;71866;53.340;-6.308;2024-01-07T02:30:16;11.60;;;5.50;;
82265;SDS011;71866;53.340;-6.308;2024-01-07T02:32:43;13.35;;;6.00;;
82265;SDS011;71866;53.340;-6.308;2024-01-07T02:35:11;10.45;;;4.88;;
82265;SDS011;71866;53.340;-6.308;2024-01-07T02:37:37;11.27;;;5.05;;
82265;SDS011;71866;53.340;-6.308;2024-01-07T02:40:05;12.48;;;4.45;;
82265;SDS011;71866;53.340;-6.308;2024-01-07T02:42:32;8.60;;;4.05;;
82265;SDS011;71866;53.340;-6.308;2024-01-07T02:45:00;10.00;;;4.68;;
82265;SDS011;71866;53.340;-6.308;2024-01-07T02:47:27;10.02;;;5.00;;
82265;SDS011;71866;53.340;-6.308;2024-01-07T02:49:54;12.00;;;5.47;;
82265;SDS011;71866;53.340;-6.308;2024-01-07T02:52:21;11.45;;;4.97;;
82265;SDS011;71866;53.340;-6.308;2024-01-07T02:54:49;11.10;;;4.03;;
82265;SDS011;71866;53.340;-6.308;2024-01-07T02:57:15;11.73;;;5.07;;
82265;SDS011;71866;53.340;-6.308;2024-01-07T02:59:42;10.00;;;4.60;;
82265;SDS011;71866;53.340;-6.308;2024-01-07T03:02:10;10.38;;;4.13;;
82265;SDS011;71866;53.340;-6.308;2024-01-07T03:04:36;8.20;;;4.60;;
82265;SDS011;71866;53.340;-6.308;2024-01-07T03:07:03;12.13;;;4.63;;
82265;SDS011;71866;53.340;-6.308;2024-01-07T03:09:30;9.10;;;4.15;;
82265;SDS011;71866;53.340;-6.308;2024-01-07T03:11:57;8.82;;;4.10;;
82265;SDS011;71866;53.340;-6.308;2024-01-07T03:14:25;8.35;;;4.20;;
82265;SDS011;71866;53.340;-6.308;2024-01-07T03:16:51;9.70;;;4.13;;
82265;SDS011;71866;53.340;-6.308;2024-01-07T03:19:19;10.77;;;4.78;;
82265;SDS011;71866;53.340;-6.308;2024-01-07T03:21:47;8.02;;;4.10;;
82265;SDS011;71866;53.340;-6.308;2024-01-07T03:24:15;8.82;;;3.92;;
82265;SDS011;71866;53.340;-6.308;2024-01-07T03:26:43;9.13;;;3.80;;
82265;SDS011;71866;53.340;-6.308;2024-01-07T03:29:10;10.15;;;4.30;;
82265;SDS011;71866;53.340;-6.308;2024-01-07T03:31:37;7.28;;;4.03;;
82265;SDS011;71866;53.340;-6.308;2024-01-07T03:34:04;10.13;;;4.80;;
82265;SDS011;71866;53.340;-6.308;2024-01-07T03:36:31;8.90;;;4.68;;
82265;SDS011;71866;53.340;-6.308;2024-01-07T03:38:58;10.88;;;4.93;;
82265;SDS011;71866;53.340;-6.308;2024-01-07T03:41:25;7.82;;;4.50;;
82265;SDS011;71866;53.340;-6.308;2024-01-07T03:43:53;12.10;;;5.05;;
82265;SDS011;71866;53.340;-6.308;2024-01-07T03:46:20;9.27;;;4.40;;
82265;SDS011;71866;53.340;-6.308;2024-01-07T03:48:47;10.50;;;4.47;;
82265;SDS011;71866;53.340;-6.308;2024-01-07T03:51:14;10.73;;;4.47;;
82265;SDS011;71866;53.340;-6.308;2024-01-07T03:53:43;8.77;;;4.68;;
82265;SDS011;71866;53.340;-6.308;2024-01-07T03:56:09;10.68;;;4.60;;
82265;SDS011;71866;53.340;-6.308;2024-01-07T03:58:36;10.52;;;4.60;;
82265;SDS011;71866;53.340;-6.308;2024-01-07T04:01:04;8.95;;;4.38;;
82265;SDS011;71866;53.340;-6.308;2024-01-07T04:03:31;9.25;;;4.85;;
82265;SDS011;71866;53.340;-6.308;2024-01-07T04:05:58;12.90;;;4.90;;
82265;SDS011;71866;53.340;-6.308;2024-01-07T04:08:25;9.32;;;4.80;;
82265;SDS011;71866;53.340;-6.308;2024-01-07T04:10:52;11.23;;;4.88;;
82265;SDS011;71866;53.340;-6.308;2024-01-07T04:13:19;13.27;;;5.10;;
82265;SDS011;71866;53.340;-6.308;2024-01-07T04:15:47;12.20;;;5.07;;
82265;SDS011;71866;53.340;-6.308;2024-01-07T04:18:13;11.30;;;5.15;;
82265;SDS011;71866;53.340;-6.308;2024-01-07T04:20:41;9.90;;;4.70;;
82265;SDS011;71866;53.340;-6.308;2024-01-07T04:23:08;8.68;;;4.38;;
82265;SDS011;71866;53.340;-6.308;2024-01-07T04:25:35;8.80;;;4.97;;
82265;SDS011;71866;53.340;-6.308;2024-01-07T04:28:02;8.82;;;4.82;;
82265;SDS011;71866;53.340;-6.308;2024-01-07T04:30:29;8.52;;;4.78;;
82265;SDS011;71866;53.340;-6.308;2024-01-07T04:32:57;9.40;;;4.72;;
82265;SDS011;71866;53.340;-6.308;2024-01-07T04:35:23;10.80;;;4.60;;
82265;SDS011;71866;53.340;-6.308;2024-01-07T04:37:51;8.88;;;4.20;;
82265;SDS011;71866;53.340;-6.308;2024-01-07T04:40:18;8.90;;;4.40;;
82265;SDS011;71866;53.340;-6.308;2024-01-07T04:42:45;10.35;;;5.07;;
82265;SDS011;71866;53.340;-6.308;2024-01-07T04:45:12;10.95;;;5.25;;
82265;SDS011;71866;53.340;-6.308;2024-01-07T04:47:39;9.55;;;5.22;;
82265;SDS011;71866;53.340;-6.308;2024-01-07T04:50:06;12.50;;;4.43;;
82265;SDS011;71866;53.340;-6.308;2024-01-07T04:52:33;10.27;;;4.50;;
82265;SDS011;71866;53.340;-6.308;2024-01-07T04:55:01;9.27;;;4.57;;
82265;SDS011;71866;53.340;-6.308;2024-01-07T04:57:28;12.93;;;4.60;;
82265;SDS011;71866;53.340;-6.308;2024-01-07T04:59:54;8.90;;;4.18;;
82265;SDS011;71866;53.340;-6.308;2024-01-07T05:02:22;10.48;;;4.55;;
82265;SDS011;71866;53.340;-6.308;2024-01-07T05:04:50;10.02;;;4.43;;
82265;SDS011;71866;53.340;-6.308;2024-01-07T05:07:16;9.68;;;4.47;;
82265;SDS011;71866;53.340;-6.308;2024-01-07T05:09:44;8.85;;;3.70;;
82265;SDS011;71866;53.340;-6.308;2024-01-07T05:12:11;9.18;;;4.18;;
82265;SDS011;71866;53.340;-6.308;2024-01-07T05:14:37;9.35;;;4.13;;
82265;SDS011;71866;53.340;-6.308;2024-01-07T05:17:06;6.63;;;4.18;;
82265;SDS011;71866;53.340;-6.308;2024-01-07T05:19:32;8.57;;;4.15;;
82265;SDS011;71866;53.340;-6.308;2024-01-07T05:21:59;8.80;;;4.65;;
82265;SDS011;71866;53.340;-6.308;2024-01-07T05:24:27;10.38;;;4.45;;
82265;SDS011;71866;53.340;-6.308;2024-01-07T05:26:54;9.63;;;4.35;;
82265;SDS011;71866;53.340;-6.308;2024-01-07T05:29:21;8.73;;;4.65;;
82265;SDS011;71866;53.340;-6.308;2024-01-07T05:31:48;8.48;;;4.40;;
82265;SDS011;71866;53.340;-6.308;2024-01-07T05:34:16;8.30;;;4.15;;
82265;SDS011;71866;53.340;-6.308;2024-01-07T05:36:42;9.15;;;4.53;;
82265;SDS011;71866;53.340;-6.308;2024-01-07T05:39:10;7.13;;;3.63;;
82265;SDS011;71866;53.340;-6.308;2024-01-07T05:41:37;8.82;;;4.35;;
82265;SDS011;71866;53.340;-6.308;2024-01-07T05:44:08;8.52;;;4.13;;
82265;SDS011;71866;53.340;-6.308;2024-01-07T05:46:39;8.30;;;4.28;;
82265;SDS011;71866;53.340;-6.308;2024-01-07T05:49:08;8.15;;;3.75;;
82265;SDS011;71866;53.340;-6.308;2024-01-07T05:51:38;9.18;;;4.15;;
82265;SDS011;71866;53.340;-6.308;2024-01-07T05:54:07;9.07;;;4.10;;
82265;SDS011;71866;53.340;-6.308;2024-01-07T05:56:40;8.18;;;4.25;;
82265;SDS011;71866;53.340;-6.308;2024-01-07T05:59:08;10.48;;;4.93;;
82265;SDS011;71866;53.340;-6.308;2024-01-07T06:01:35;7.00;;;4.03;;
82265;SDS011;71866;53.340;-6.308;2024-01-07T06:04:03;8.40;;;4.65;;
82265;SDS011;71866;53.340;-6.308;2024-01-07T06:06:31;9.65;;;4.65;;
82265;SDS011;71866;53.340;-6.308;2024-01-07T06:08:58;10.30;;;4.65;;
82265;SDS011;71866;53.340;-6.308;2024-01-07T06:11:25;9.88;;;4.32;;
82265;SDS011;71866;53.340;-6.308;2024-01-07T06:13:52;7.82;;;4.30;;
82265;SDS011;71866;53.340;-6.308;2024-01-07T06:16:20;8.73;;;4.30;;
82265;SDS011;71866;53.340;-6.308;2024-01-07T06:18:46;10.15;;;4.22;;
82265;SDS011;71866;53.340;-6.308;2024-01-07T06:21:14;8.52;;;4.25;;
82265;SDS011;71866;53.340;-6.308;2024-01-07T06:23:41;9.82;;;4.32;;
82265;SDS011;71866;53.340;-6.308;2024-01-07T06:26:09;8.50;;;4.30;;
82265;SDS011;71866;53.340;-6.308;2024-01-07T06:28:35;11.65;;;4.40;;
82265;SDS011;71866;53.340;-6.308;2024-01-07T06:31:03;9.57;;;4.38;;
82265;SDS011;71866;53.340;-6.308;2024-01-07T06:33:31;8.32;;;4.43;;
82265;SDS011;71866;53.340;-6.308;2024-01-07T06:35:59;10.50;;;4.43;;
82265;SDS011;71866;53.340;-6.308;2024-01-07T06:38:28;7.55;;;4.00;;
82265;SDS011;71866;53.340;-6.308;2024-01-07T06:40:54;12.52;;;4.50;;
82265;SDS011;71866;53.340;-6.308;2024-01-07T06:43:26;12.07;;;4.80;;
82265;SDS011;71866;53.340;-6.308;2024-01-07T06:45:55;9.73;;;4.65;;
82265;SDS011;71866;53.340;-6.308;2024-01-07T06:48:21;10.57;;;4.38;;
82265;SDS011;71866;53.340;-6.308;2024-01-07T06:50:49;10.20;;;5.40;;
82265;SDS011;71866;53.340;-6.308;2024-01-07T06:53:16;14.38;;;5.75;;
82265;SDS011;71866;53.340;-6.308;2024-01-07T06:55:43;12.85;;;4.90;;
82265;SDS011;71866;53.340;-6.308;2024-01-07T06:58:10;13.00;;;4.93;;
82265;SDS011;71866;53.340;-6.308;2024-01-07T07:00:38;12.40;;;4.78;;
82265;SDS011;71866;53.340;-6.308;2024-01-07T07:03:05;12.98;;;5.15;;
82265;SDS011;71866;53.340;-6.308;2024-01-07T07:05:33;12.98;;;5.30;;
82265;SDS011;71866;53.340;-6.308;2024-01-07T07:08:01;13.40;;;5.35;;
82265;SDS011;71866;53.340;-6.308;2024-01-07T07:10:29;11.10;;;4.82;;
82265;SDS011;71866;53.340;-6.308;2024-01-07T07:12:55;9.93;;;4.93;;
82265;SDS011;71866;53.340;-6.308;2024-01-07T07:15:22;11.60;;;5.05;;
82265;SDS011;71866;53.340;-6.308;2024-01-07T07:17:50;12.55;;;4.90;;
82265;SDS011;71866;53.340;-6.308;2024-01-07T07:20:16;9.95;;;4.55;;
82265;SDS011;71866;53.340;-6.308;2024-01-07T07:22:44;10.15;;;4.80;;
82265;SDS011;71866;53.340;-6.308;2024-01-07T07:25:11;12.25;;;4.85;;
82265;SDS011;71866;53.340;-6.308;2024-01-07T07:27:38;14.10;;;5.20;;
82265;SDS011;71866;53.340;-6.308;2024-01-07T07:30:05;10.70;;;4.82;;
82265;SDS011;71866;53.340;-6.308;2024-01-07T07:32:32;11.90;;;4.50;;
82265;SDS011;71866;53.340;-6.308;2024-01-07T07:35:00;11.57;;;4.63;;
82265;SDS011;71866;53.340;-6.308;2024-01-07T07:37:26;11.77;;;4.32;;
82265;SDS011;71866;53.340;-6.308;2024-01-07T07:39:54;11.68;;;5.07;;
82265;SDS011;71866;53.340;-6.308;2024-01-07T07:42:21;11.25;;;4.38;;
82265;SDS011;71866;53.340;-6.308;2024-01-07T07:44:48;11.60;;;5.18;;
82265;SDS011;71866;53.340;-6.308;2024-01-07T07:47:15;11.73;;;5.40;;
82265;SDS011;71866;53.340;-6.308;2024-01-07T07:49:42;12.13;;;5.43;;
82265;SDS011;71866;53.340;-6.308;2024-01-07T07:52:09;14.13;;;5.32;;
82265;SDS011;71866;53.340;-6.308;2024-01-07T07:54:39;11.35;;;5.78;;
82265;SDS011;71866;53.340;-6.308;2024-01-07T07:57:07;12.77;;;5.00;;
82265;SDS011;71866;53.340;-6.308;2024-01-07T07:59:33;19.13;;;5.50;;
82265;SDS011;71866;53.340;-6.308;2024-01-07T08:02:01;9.95;;;4.50;;
82265;SDS011;71866;53.340;-6.308;2024-01-07T08:04:28;11.27;;;4.68;;
82265;SDS011;71866;53.340;-6.308;2024-01-07T08:06:56;10.13;;;4.80;;
82265;SDS011;71866;53.340;-6.308;2024-01-07T08:09:22;10.02;;;4.75;;
82265;SDS011;71866;53.340;-6.308;2024-01-07T08:11:50;11.48;;;5.22;;
82265;SDS011;71866;53.340;-6.308;2024-01-07T08:14:18;12.60;;;4.93;;
82265;SDS011;71866;53.340;-6.308;2024-01-07T08:16:45;10.82;;;4.70;;
82265;SDS011;71866;53.340;-6.308;2024-01-07T08:19:12;14.75;;;4.95;;
82265;SDS011;71866;53.340;-6.308;2024-01-07T08:21:40;13.35;;;5.00;;
82265;SDS011;71866;53.340;-6.308;2024-01-07T08:24:08;11.82;;;4.25;;
82265;SDS011;71866;53.340;-6.308;2024-01-07T08:26:35;12.60;;;4.97;;
82265;SDS011;71866;53.340;-6.308;2024-01-07T08:29:02;10.65;;;4.72;;
82265;SDS011;71866;53.340;-6.308;2024-01-07T08:31:29;13.88;;;4.63;;
82265;SDS011;71866;53.340;-6.308;2024-01-07T08:33:57;10.52;;;4.50;;
82265;SDS011;71866;53.340;-6.308;2024-01-07T08:36:24;11.45;;;5.10;;
82265;SDS011;71866;53.340;-6.308;2024-01-07T08:38:51;19.98;;;5.40;;
82265;SDS011;71866;53.340;-6.308;2024-01-07T08:41:18;12.38;;;4.95;;
82265;SDS011;71866;53.340;-6.308;2024-01-07T08:43:45;12.93;;;4.78;;
82265;SDS011;71866;53.340;-6.308;2024-01-07T08:46:12;12.43;;;4.63;;
82265;SDS011;71866;53.340;-6.308;2024-01-07T08:48:39;13.52;;;4.88;;
82265;SDS011;71866;53.340;-6.308;2024-01-07T08:51:07;12.98;;;4.82;;
82265;SDS011;71866;53.340;-6.308;2024-01-07T08:53:34;13.77;;;5.32;;
82265;SDS011;71866;53.340;-6.308;2024-01-07T08:56:02;10.30;;;5.53;;
82265;SDS011;71866;53.340;-6.308;2024-01-07T08:58:28;13.05;;;5.45;;
82265;SDS011;71866;53.340;-6.308;2024-01-07T09:00:56;11.40;;;4.25;;
82265;SDS011;71866;53.340;-6.308;2024-01-07T09:03:24;12.98;;;4.82;;
82265;SDS011;71866;53.340;-6.308;2024-01-07T09:05:50;14.15;;;5.32;;
82265;SDS011;71866;53.340;-6.308;2024-01-07T09:08:17;12.18;;;4.80;;
82265;SDS011;71866;53.340;-6.308;2024-01-07T09:10:45;16.77;;;4.85;;
82265;SDS011;71866;53.340;-6.308;2024-01-07T09:13:11;13.35;;;5.10;;
82265;SDS011;71866;53.340;-6.308;2024-01-07T09:15:40;9.30;;;4.10;;
82265;SDS011;71866;53.340;-6.308;2024-01-07T09:18:07;12.60;;;5.20;;
82265;SDS011;71866;53.340;-6.308;2024-01-07T09:20:35;12.55;;;4.50;;
82265;SDS011;71866;53.340;-6.308;2024-01-07T09:23:01;12.75;;;4.97;;
82265;SDS011;71866;53.340;-6.308;2024-01-07T09:25:29;13.75;;;5.22;;
82265;SDS011;71866;53.340;-6.308;2024-01-07T09:27:56;13.75;;;4.93;;
82265;SDS011;71866;53.340;-6.308;2024-01-07T09:30:22;15.10;;;5.25;;
82265;SDS011;71866;53.340;-6.308;2024-01-07T09:32:50;11.48;;;4.55;;
82265;SDS011;71866;53.340;-6.308;2024-01-07T09:35:17;13.10;;;4.60;;
82265;SDS011;71866;53.340;-6.308;2024-01-07T09:37:43;13.80;;;5.15;;
82265;SDS011;71866;53.340;-6.308;2024-01-07T09:40:11;14.10;;;5.47;;
82265;SDS011;71866;53.340;-6.308;2024-01-07T09:42:39;14.10;;;5.22;;
82265;SDS011;71866;53.340;-6.308;2024-01-07T09:45:07;11.00;;;5.05;;
82265;SDS011;71866;53.340;-6.308;2024-01-07T09:47:38;12.73;;;5.45;;
82265;SDS011;71866;53.340;-6.308;2024-01-07T09:50:07;16.25;;;5.55;;
82265;SDS011;71866;53.340;-6.308;2024-01-07T09:52:34;15.80;;;5.60;;
82265;SDS011;71866;53.340;-6.308;2024-01-07T09:55:04;11.40;;;5.43;;
82265;SDS011;71866;53.340;-6.308;2024-01-07T09:57:37;12.82;;;5.38;;
82265;SDS011;71866;53.340;-6.308;2024-01-07T10:00:07;12.65;;;5.50;;
82265;SDS011;71866;53.340;-6.308;2024-01-07T10:02:35;11.98;;;5.28;;
82265;SDS011;71866;53.340;-6.308;2024-01-07T10:05:02;15.38;;;5.50;;
82265;SDS011;71866;53.340;-6.308;2024-01-07T10:07:29;12.48;;;5.40;;
82265;SDS011;71866;53.340;-6.308;2024-01-07T10:09:57;15.40;;;5.70;;
82265;SDS011;71866;53.340;-6.308;2024-01-07T10:12:24;16.52;;;6.32;;
82265;SDS011;71866;53.340;-6.308;2024-01-07T10:14:51;14.07;;;5.95;;
82265;SDS011;71866;53.340;-6.308;2024-01-07T10:17:18;17.63;;;6.20;;
82265;SDS011;71866;53.340;-6.308;2024-01-07T10:19:45;14.65;;;6.38;;
82265;SDS011;71866;53.340;-6.308;2024-01-07T10:22:13;19.83;;;6.25;;
82265;SDS011;71866;53.340;-6.308;2024-01-07T10:24:40;15.95;;;6.63;;
82265;SDS011;71866;53.340;-6.308;2024-01-07T10:27:08;19.15;;;7.00;;
82265;SDS011;71866;53.340;-6.308;2024-01-07T10:29:36;18.38;;;6.68;;
82265;SDS011;71866;53.340;-6.308;2024-01-07T10:32:03;17.48;;;7.32;;
82265;SDS011;71866;53.340;-6.308;2024-01-07T10:34:32;16.60;;;5.93;;
82265;SDS011;71866;53.340;-6.308;2024-01-07T10:37:00;16.77;;;5.60;;
82265;SDS011;71866;53.340;-6.308;2024-01-07T10:39:30;11.05;;;4.80;;
82265;SDS011;71866;53.340;-6.308;2024-01-07T10:41:57;12.07;;;5.15;;
82265;SDS011;71866;53.340;-6.308;2024-01-07T10:44:29;16.48;;;5.95;;
82265;SDS011;71866;53.340;-6.308;2024-01-07T10:46:57;16.23;;;5.93;;
82265;SDS011;71866;53.340;-6.308;2024-01-07T10:49:26;18.33;;;6.57;;
82265;SDS011;71866;53.340;-6.308;2024-01-07T10:52:04;13.73;;;5.20;;
82265;SDS011;71866;53.340;-6.308;2024-01-07T10:54:33;14.52;;;5.88;;
82265;SDS011;71866;53.340;-6.308;2024-01-07T10:57:21;14.68;;;5.65;;
82265;SDS011;71866;53.340;-6.308;2024-01-07T11:00:00;11.35;;;5.10;;
82265;SDS011;71866;53.340;-6.308;2024-01-07T11:02:27;11.77;;;5.60;;
82265;SDS011;71866;53.340;-6.308;2024-01-07T11:07:51;18.33;;;6.90;;
82265;SDS011;71866;53.340;-6.308;2024-01-07T11:10:39;15.55;;;7.20;;
82265;SDS011;71866;53.340;-6.308;2024-01-07T11:13:37;19.42;;;6.65;;
82265;SDS011;71866;53.340;-6.308;2024-01-07T11:16:06;15.75;;;6.03;;
82265;SDS011;71866;53.340;-6.308;2024-01-07T11:21:04;15.82;;;6.10;;
82265;SDS011;71866;53.340;-6.308;2024-01-07T11:23:31;12.48;;;5.72;;
82265;SDS011;71866;53.340;-6.308;2024-01-07T11:26:01;13.45;;;6.03;;
82265;SDS011;71866;53.340;-6.308;2024-01-07T11:31:15;15.70;;;6.00;;
82265;SDS011;71866;53.340;-6.308;2024-01-07T11:33:48;12.02;;;5.20;;
82265;SDS011;71866;53.340;-6.308;2024-01-07T11:36:17;14.30;;;5.55;;
82265;SDS011;71866;53.340;-6.308;2024-01-07T11:38:47;14.52;;;6.25;;
82265;SDS011;71866;53.340;-6.308;2024-01-07T11:41:20;13.15;;;5.80;;
82265;SDS011;71866;53.340;-6.308;2024-01-07T11:43:58;14.30;;;5.55;;
82265;SDS011;71866;53.340;-6.308;2024-01-07T11:46:32;13.52;;;5.43;;
82265;SDS011;71866;53.340;-6.308;2024-01-07T11:48:59;12.57;;;5.80;;
82265;SDS011;71866;53.340;-6.308;2024-01-07T11:53:56;16.40;;;6.68;;
82265;SDS011;71866;53.340;-6.308;2024-01-07T11:56:27;15.52;;;6.95;;
82265;SDS011;71866;53.340;-6.308;2024-01-07T11:58:54;15.32;;;6.35;;
82265;SDS011;71866;53.340;-6.308;2024-01-07T12:01:22;15.82;;;7.85;;
82265;SDS011;71866;53.340;-6.308;2024-01-07T12:03:49;14.23;;;6.80;;
82265;SDS011;71866;53.340;-6.308;2024-01-07T12:06:18;15.98;;;7.25;;
82265;SDS011;71866;53.340;-6.308;2024-01-07T12:08:47;12.65;;;5.90;;
82265;SDS011;71866;53.340;-6.308;2024-01-07T12:11:14;14.57;;;7.13;;
82265;SDS011;71866;53.340;-6.308;2024-01-07T12:13:43;14.32;;;6.82;;
82265;SDS011;71866;53.340;-6.308;2024-01-07T12:16:10;17.55;;;7.68;;
82265;SDS011;71866;53.340;-6.308;2024-01-07T12:18:37;15.82;;;7.05;;
82265;SDS011;71866;53.340;-6.308;2024-01-07T12:21:06;16.80;;;7.75;;
82265;SDS011;71866;53.340;-6.308;2024-01-07T12:23:36;16.92;;;8.25;;
82265;SDS011;71866;53.340;-6.308;2024-01-07T12:26:09;19.45;;;8.55;;
82265;SDS011;71866;53.340;-6.308;2024-01-07T12:28:38;18.50;;;8.60;;
82265;SDS011;71866;53.340;-6.308;2024-01-07T12:31:06;17.38;;;8.20;;
82265;SDS011;71866;53.340;-6.308;2024-01-07T12:33:34;20.73;;;8.05;;
82265;SDS011;71866;53.340;-6.308;2024-01-07T12:36:05;19.17;;;8.40;;
82265;SDS011;71866;53.340;-6.308;2024-01-07T12:38:36;17.55;;;7.80;;
82265;SDS011;71866;53.340;-6.308;2024-01-07T12:41:04;15.52;;;7.50;;
82265;SDS011;71866;53.340;-6.308;2024-01-07T12:43:33;20.05;;;7.50;;
82265;SDS011;71866;53.340;-6.308;2024-01-07T12:46:00;18.55;;;7.93;;
82265;SDS011;71866;53.340;-6.308;2024-01-07T12:48:26;22.70;;;9.02;;
82265;SDS011;71866;53.340;-6.308;2024-01-07T12:50:55;24.33;;;8.98;;
82265;SDS011;71866;53.340;-6.308;2024-01-07T12:53:22;22.42;;;8.98;;
82265;SDS011;71866;53.340;-6.308;2024-01-07T12:55:49;21.92;;;8.30;;
82265;SDS011;71866;53.340;-6.308;2024-01-07T12:58:17;18.63;;;8.05;;
82265;SDS011;71866;53.340;-6.308;2024-01-07T13:00:44;18.15;;;8.43;;
82265;SDS011;71866;53.340;-6.308;2024-01-07T13:03:11;19.55;;;8.65;;
82265;SDS011;71866;53.340;-6.308;2024-01-07T13:05:39;20.50;;;8.48;;
82265;SDS011;71866;53.340;-6.308;2024-01-07T13:08:05;23.00;;;7.97;;
82265;SDS011;71866;53.340;-6.308;2024-01-07T13:10:33;20.45;;;8.43;;
82265;SDS011;71866;53.340;-6.308;2024-01-07T13:13:01;18.70;;;8.52;;
82265;SDS011;71866;53.340;-6.308;2024-01-07T13:15:37;16.27;;;7.78;;
82265;SDS011;71866;53.340;-6.308;2024-01-07T13:18:05;17.20;;;7.22;;
82265;SDS011;71866;53.340;-6.308;2024-01-07T13:20:32;24.25;;;9.02;;
82265;SDS011;71866;53.340;-6.308;2024-01-07T13:22:59;19.85;;;7.95;;
82265;SDS011;71866;53.340;-6.308;2024-01-07T13:25:26;19.25;;;8.95;;
82265;SDS011;71866;53.340;-6.308;2024-01-07T13:27:54;19.38;;;8.48;;
82265;SDS011;71866;53.340;-6.308;2024-01-07T13:30:20;16.83;;;6.82;;
82265;SDS011;71866;53.340;-6.308;2024-01-07T13:32:47;21.55;;;8.02;;
82265;SDS011;71866;53.340;-6.308;2024-01-07T13:35:15;19.20;;;7.80;;
82265;SDS011;71866;53.340;-6.308;2024-01-07T13:37:42;23.13;;;8.82;;
82265;SDS011;71866;53.340;-6.308;2024-01-07T13:40:10;21.45;;;8.77;;
82265;SDS011;71866;53.340;-6.308;2024-01-07T13:42:37;26.27;;;9.60;;
82265;SDS011;71866;53.340;-6.308;2024-01-07T13:45:04;21.23;;;9.68;;
82265;SDS011;71866;53.340;-6.308;2024-01-07T13:47:32;19.55;;;9.52;;
82265;SDS011;71866;53.340;-6.308;2024-01-07T13:49:59;20.52;;;10.02;;
82265;SDS011;71866;53.340;-6.308;2024-01-07T13:52:26;24.75;;;10.65;;
82265;SDS011;71866;53.340;-6.308;2024-01-07T13:54:53;24.35;;;11.88;;
82265;SDS011;71866;53.340;-6.308;2024-01-07T13:57:20;26.67;;;12.63;;
82265;SDS011;71866;53.340;-6.308;2024-01-07T13:59:47;24.35;;;12.00;;
82265;SDS011;71866;53.340;-6.308;2024-01-07T14:02:15;19.75;;;9.23;;
82265;SDS011;71866;53.340;-6.308;2024-01-07T14:04:43;20.23;;;8.82;;
82265;SDS011;71866;53.340;-6.308;2024-01-07T14:07:10;16.00;;;7.78;;
82265;SDS011;71866;53.340;-6.308;2024-01-07T14:09:37;15.07;;;8.07;;
82265;SDS011;71866;53.340;-6.308;2024-01-07T14:12:04;15.77;;;7.60;;
82265;SDS011;71866;53.340;-6.308;2024-01-07T14:14:32;20.67;;;8.07;;
82265;SDS011;71866;53.340;-6.308;2024-01-07T14:17:00;14.55;;;6.28;;
82265;SDS011;71866;53.340;-6.308;2024-01-07T14:19:26;15.40;;;7.50;;
82265;SDS011;71866;53.340;-6.308;2024-01-07T14:21:54;16.38;;;6.55;;
82265;SDS011;71866;53.340;-6.308;2024-01-07T14:24:22;19.02;;;7.43;;
82265;SDS011;71866;53.340;-6.308;2024-01-07T14:26:48;14.90;;;7.68;;
82265;SDS011;71866;53.340;-6.308;2024-01-07T14:29:16;18.90;;;7.93;;
82265;SDS011;71866;53.340;-6.308;2024-01-07T14:31:44;15.52;;;7.25;;
82265;SDS011;71866;53.340;-6.308;2024-01-07T14:34:11;17.30;;;7.88;;
82265;SDS011;71866;53.340;-6.308;2024-01-07T14:36:39;16.83;;;8.27;;
82265;SDS011;71866;53.340;-6.308;2024-01-07T14:39:06;17.02;;;8.55;;